createdAt,value
2023-01-17T00:02:19.157Z,52.60
2023-01-17T00:05:06.754Z,108.10
2023-01-17T00:07:54.823Z,43.80
2023-01-17T00:10:25.988Z,38.60
2023-01-17T00:12:56.004Z,42.20
2023-01-17T00:15:25.304Z,103.20
2023-01-17T00:17:54.827Z,39.20
2023-01-17T00:20:48.678Z,35.10
2023-01-17T00:26:12.100Z,40.80
2023-01-17T00:28:41.749Z,76.80
2023-01-17T00:31:13.092Z,39.60
2023-01-17T00:33:42.027Z,36.70
2023-01-17T00:36:11.441Z,32.30
2023-01-17T00:38:40.519Z,37.20
2023-01-17T00:41:11.757Z,41.90
2023-01-17T00:43:58.885Z,40.20
2023-01-17T00:46:46.071Z,50.40
2023-01-17T00:49:34.257Z,43.60
2023-01-17T00:52:21.088Z,38.30
2023-01-17T00:55:07.986Z,32.00
2023-01-17T00:57:54.897Z,36.20
2023-01-17T01:00:41.959Z,60.00
2023-01-17T01:03:30.368Z,47.80
2023-01-17T01:06:17.837Z,36.00
2023-01-17T01:09:05.143Z,36.90
2023-01-17T01:11:51.922Z,40.00
2023-01-17T01:14:39.359Z,57.80
2023-01-17T01:17:26.264Z,46.60
2023-01-17T01:20:13.490Z,58.20
2023-01-17T01:23:00.464Z,117.10
2023-01-17T01:25:47.151Z,39.50
2023-01-17T01:28:34.139Z,80.90
2023-01-17T01:31:23.337Z,128.40
2023-01-17T01:33:53.065Z,32.80
2023-01-17T01:36:21.710Z,30.10
2023-01-17T01:38:50.597Z,73.50
2023-01-17T01:41:19.188Z,104.40
2023-01-17T01:43:52.992Z,45.90
2023-01-17T01:46:30.283Z,59.80
2023-01-17T01:49:06.265Z,68.30
2023-01-17T01:51:50.812Z,43.30
2023-01-17T01:54:34.143Z,46.20
2023-01-17T01:57:05.913Z,49.10
2023-01-17T01:59:35.171Z,67.20
2023-01-17T02:02:03.254Z,84.20
2023-01-17T02:04:31.484Z,70.80
2023-01-17T02:07:13.031Z,71.10
2023-01-17T02:09:41.935Z,58.70
2023-01-17T02:12:11.540Z,52.40
2023-01-17T02:14:39.930Z,54.20
2023-01-17T02:17:27.961Z,52.70
2023-01-17T02:20:05.157Z,59.20
2023-01-17T02:23:19.026Z,193.70
2023-01-17T02:26:13.377Z,297.60
2023-01-17T02:29:19.545Z,159.60
2023-01-17T02:32:37.094Z,145.60
2023-01-17T02:35:16.326Z,145.40
2023-01-17T02:38:25.664Z,118.10
2023-01-17T02:41:03.977Z,102.50
2023-01-17T02:43:34.097Z,72.30
2023-01-17T02:46:02.363Z,63.80
2023-01-17T02:48:33.440Z,54.70
2023-01-17T02:51:30.882Z,55.70
2023-01-17T02:54:15.949Z,50.00
2023-01-17T02:56:44.074Z,54.80
2023-01-17T02:59:18.045Z,48.50
2023-01-17T03:01:58.459Z,39.30
2023-01-17T03:04:51.774Z,42.20
2023-01-17T03:07:27.545Z,42.20
2023-01-17T03:10:00.715Z,38.90
2023-01-17T03:12:31.576Z,39.50
2023-01-17T03:14:59.867Z,44.70
2023-01-17T03:17:33.141Z,73.20
2023-01-17T03:20:01.304Z,166.90
2023-01-17T03:22:29.489Z,241.20
2023-01-17T03:24:57.862Z,151.10
2023-01-17T03:27:26.354Z,127.40
2023-01-17T03:29:54.819Z,148.40
2023-01-17T03:32:23.413Z,53.10
2023-01-17T03:34:51.690Z,55.40
2023-01-17T03:37:20.367Z,54.70
2023-01-17T03:39:49.373Z,71.20
2023-01-17T03:42:17.557Z,69.10
2023-01-17T03:44:46.032Z,77.40
2023-01-17T03:47:14.217Z,63.90
2023-01-17T03:49:42.390Z,65.80
2023-01-17T03:52:10.962Z,95.80
2023-01-17T03:54:39.254Z,90.20
2023-01-17T03:57:08.860Z,74.00
2023-01-17T03:59:37.174Z,63.70
2023-01-17T04:02:05.626Z,38.40
2023-01-17T04:04:34.408Z,31.00
2023-01-17T04:07:02.506Z,17.30
2023-01-17T04:09:34.347Z,8.60
2023-01-17T04:12:03.361Z,4.70
2023-01-17T04:14:31.519Z,6.50
2023-01-17T04:17:00.262Z,4.10
2023-01-17T04:19:29.411Z,5.20
2023-01-17T04:21:57.554Z,8.70
2023-01-17T04:24:25.797Z,12.00
2023-01-17T04:26:53.931Z,9.50
2023-01-17T04:29:22.414Z,92.00
2023-01-17T04:31:50.946Z,49.40
2023-01-17T04:34:19.250Z,65.90
2023-01-17T04:36:47.671Z,222.50
2023-01-17T04:39:15.938Z,85.10
2023-01-17T04:41:44.269Z,59.50
2023-01-17T04:44:12.597Z,40.60
2023-01-17T04:46:40.986Z,44.50
2023-01-17T04:49:09.359Z,51.50
2023-01-17T04:51:37.939Z,19.90
2023-01-17T04:54:06.423Z,22.80
2023-01-17T04:56:34.802Z,41.60
2023-01-17T04:59:03.080Z,74.60
2023-01-17T05:01:31.361Z,125.20
2023-01-17T05:03:59.635Z,152.80
2023-01-17T05:06:27.785Z,117.80
2023-01-17T05:08:56.089Z,116.70
2023-01-17T05:11:24.888Z,120.40
2023-01-17T05:13:53.270Z,121.80
2023-01-17T05:16:21.369Z,85.10
2023-01-17T05:18:53.768Z,86.60
2023-01-17T05:21:22.721Z,115.50
2023-01-17T05:23:51.812Z,61.70
2023-01-17T05:26:20.241Z,55.10
2023-01-17T05:28:48.569Z,32.60
2023-01-17T05:31:17.635Z,36.70
2023-01-17T05:33:45.867Z,43.00
2023-01-17T05:36:14.223Z,23.80
2023-01-17T05:38:42.532Z,24.10
2023-01-17T05:41:11.003Z,22.30
2023-01-17T05:43:39.469Z,26.10
2023-01-17T05:46:08.724Z,21.90
2023-01-17T05:48:37.061Z,13.90
2023-01-17T05:51:05.341Z,12.60
2023-01-17T05:53:34.314Z,12.50
2023-01-17T05:56:02.602Z,11.00
2023-01-17T05:58:31.084Z,14.40
2023-01-17T06:01:01.655Z,28.60
2023-01-17T06:03:30.227Z,20.90
2023-01-17T06:06:00.352Z,33.10
2023-01-17T06:08:28.805Z,23.20
2023-01-17T06:10:59.656Z,26.10
2023-01-17T06:13:27.856Z,18.80
2023-01-17T06:16:02.875Z,24.70
2023-01-17T06:18:31.967Z,18.20
2023-01-17T06:21:00.335Z,14.40
2023-01-17T06:23:28.647Z,7.40
2023-01-17T06:25:57.115Z,6.30
2023-01-17T06:28:25.580Z,7.60
2023-01-17T06:30:54.036Z,10.80
2023-01-17T06:33:23.877Z,8.30
2023-01-17T06:35:53.158Z,8.90
2023-01-17T06:38:22.006Z,8.60
2023-01-17T06:40:50.239Z,6.70
2023-01-17T06:43:19.136Z,17.20
2023-01-17T06:45:49.319Z,55.60
2023-01-17T06:48:18.975Z,49.80
2023-01-17T06:50:48.700Z,28.20
2023-01-17T06:53:20.641Z,29.60
2023-01-17T06:55:49.552Z,100.40
2023-01-17T06:58:19.662Z,66.40
2023-01-17T07:00:48.246Z,46.70
2023-01-17T07:03:22.259Z,51.30
2023-01-17T07:05:51.861Z,38.50
2023-01-17T07:08:20.825Z,20.70
2023-01-17T07:10:49.492Z,14.80
2023-01-17T07:13:17.956Z,10.70
2023-01-17T07:15:47.397Z,8.50
2023-01-17T07:18:20.620Z,21.20
2023-01-17T07:20:52.911Z,18.30
2023-01-17T07:23:23.757Z,13.00
2023-01-17T07:25:59.872Z,17.70
2023-01-17T07:28:28.809Z,12.50
2023-01-17T07:30:57.807Z,9.60
2023-01-17T07:33:26.127Z,37.10
2023-01-17T07:40:04.027Z,28.80
2023-01-17T07:42:30.991Z,24.40
2023-01-17T07:45:00.260Z,28.80
2023-01-17T07:47:27.096Z,22.60
2023-01-17T07:49:54.325Z,19.20
2023-01-17T07:52:21.206Z,22.90
2023-01-17T07:54:48.155Z,21.60
2023-01-17T07:57:15.060Z,21.20
2023-01-17T07:59:42.452Z,35.50
2023-01-17T08:02:17.707Z,30.90
2023-01-17T08:04:45.155Z,31.80
2023-01-17T08:07:13.526Z,33.40
2023-01-17T08:09:42.022Z,36.20
2023-01-17T08:12:09.990Z,43.30
2023-01-17T08:14:36.928Z,29.10
2023-01-17T08:17:10.064Z,12.10
2023-01-17T08:19:37.079Z,10.30
2023-01-17T08:22:04.226Z,13.60
2023-01-17T08:24:30.957Z,11.10
2023-01-17T08:26:57.651Z,16.80
2023-01-17T08:29:24.565Z,9.20
2023-01-17T08:31:51.657Z,11.20
2023-01-17T08:34:18.620Z,9.30
2023-01-17T08:36:47.489Z,18.50
2023-01-17T08:39:14.298Z,14.00
2023-01-17T08:41:41.209Z,8.90
2023-01-17T08:44:08.489Z,10.00
2023-01-17T08:46:38.315Z,11.70
2023-01-17T08:49:05.147Z,12.90
2023-01-17T08:51:33.021Z,9.10
2023-01-17T08:53:59.972Z,22.20
2023-01-17T08:56:27.365Z,14.80
2023-01-17T08:58:54.478Z,11.50
2023-01-17T09:01:21.244Z,20.70
2023-01-17T09:03:49.324Z,14.30
2023-01-17T09:06:17.058Z,23.10
2023-01-17T09:08:47.482Z,22.50
2023-01-17T09:11:16.723Z,34.60
2023-01-17T09:13:44.241Z,17.20
2023-01-17T09:16:11.568Z,15.40
2023-01-17T09:18:38.873Z,14.60
2023-01-17T09:21:17.417Z,13.50
2023-01-17T09:23:44.894Z,20.10
2023-01-17T09:26:20.094Z,14.30
2023-01-17T09:28:47.852Z,50.90
2023-01-17T09:31:17.373Z,134.90
2023-01-17T09:33:44.424Z,185.40
2023-01-17T09:36:11.204Z,150.10
2023-01-17T09:38:39.725Z,30.00
2023-01-17T09:41:28.140Z,30.00
2023-01-17T09:44:39.778Z,26.20
2023-01-17T09:47:34.212Z,14.90
2023-01-17T09:50:25.293Z,16.00
2023-01-17T09:53:00.836Z,10.40
2023-01-17T09:55:34.379Z,12.00
2023-01-17T10:00:59.834Z,12.70
2023-01-17T10:04:01.448Z,17.50
2023-01-17T10:07:25.736Z,13.90
2023-01-17T10:10:01.832Z,28.00
2023-01-17T10:12:50.367Z,94.40
2023-01-17T10:15:30.699Z,20.70
2023-01-17T10:18:07.077Z,17.60
2023-01-17T10:20:54.089Z,18.00
2023-01-17T10:23:33.013Z,12.70
2023-01-17T10:26:30.643Z,15.80
2023-01-17T10:29:03.766Z,12.50
2023-01-17T10:31:37.970Z,22.50
2023-01-17T10:34:28.999Z,13.50
2023-01-17T10:37:18.401Z,12.10
2023-01-17T10:39:48.185Z,11.50
2023-01-17T10:42:25.244Z,4.60
2023-01-17T10:45:14.677Z,7.80
2023-01-17T10:47:47.935Z,12.10
2023-01-17T10:50:16.022Z,18.30
2023-01-17T10:52:56.273Z,12.60
2023-01-17T10:55:43.593Z,12.30
2023-01-17T10:58:14.624Z,12.40
2023-01-17T11:00:54.305Z,13.50
2023-01-17T11:03:21.236Z,15.20
2023-01-17T11:06:24.334Z,35.60
2023-01-17T11:08:58.973Z,13.30
2023-01-17T11:11:31.739Z,13.20
2023-01-17T11:14:25.831Z,5.50
2023-01-17T11:17:04.333Z,5.40
2023-01-17T11:19:35.789Z,14.90
2023-01-17T11:22:05.934Z,6.10
2023-01-17T11:24:50.557Z,5.00
2023-01-17T11:27:28.520Z,11.40
2023-01-17T11:30:06.693Z,34.90
2023-01-17T11:32:34.254Z,11.50
2023-01-17T11:35:32.135Z,13.60
2023-01-17T11:38:01.861Z,12.90
2023-01-17T11:40:39.529Z,15.40
2023-01-17T11:43:13.859Z,5.30
2023-01-17T11:45:41.477Z,9.60
2023-01-17T11:48:08.366Z,18.30
2023-01-17T11:50:58.980Z,18.50
2023-01-17T11:53:29.911Z,14.30
2023-01-17T11:55:57.078Z,13.40
2023-01-17T11:58:26.917Z,15.40
2023-01-17T12:01:20.153Z,21.00
2023-01-17T12:04:02.474Z,13.80
2023-01-17T12:06:56.507Z,14.10
2023-01-17T12:09:39.858Z,9.40
2023-01-17T12:12:36.815Z,19.90
2023-01-17T12:15:21.829Z,18.60
2023-01-17T12:18:10.434Z,21.80
2023-01-17T12:21:03.012Z,14.00
2023-01-17T12:23:56.758Z,17.00
2023-01-17T12:26:45.443Z,15.90
2023-01-17T12:29:48.414Z,28.20
2023-01-17T12:32:27.335Z,13.10
2023-01-17T12:35:09.034Z,17.40
2023-01-17T12:38:03.716Z,13.30
2023-01-17T12:41:00.173Z,13.20
2023-01-17T12:43:34.733Z,7.00
2023-01-17T12:46:10.045Z,7.40
2023-01-17T12:48:38.715Z,21.60
2023-01-17T12:51:17.720Z,14.60
2023-01-17T12:54:15.926Z,21.40
2023-01-17T12:56:51.874Z,19.40
2023-01-17T12:59:29.541Z,52.90
2023-01-17T13:01:59.133Z,21.90
2023-01-17T13:04:34.141Z,21.40
2023-01-17T13:07:26.289Z,32.40
2023-01-17T13:10:11.531Z,9.80
2023-01-17T13:12:39.223Z,10.60
2023-01-17T13:15:16.911Z,24.60
2023-01-17T13:18:13.703Z,16.80
2023-01-17T13:21:04.271Z,35.90
2023-01-17T13:23:52.439Z,14.60
2023-01-17T13:26:25.303Z,14.90
2023-01-17T13:29:23.069Z,19.60
2023-01-17T13:32:27.334Z,25.10
2023-01-17T13:35:09.999Z,26.90
2023-01-17T13:37:49.048Z,19.00
2023-01-17T13:40:39.370Z,37.40
2023-01-17T13:43:14.681Z,24.80
2023-01-17T13:45:51.983Z,43.90
2023-01-17T13:48:19.016Z,25.10
2023-01-17T13:50:46.166Z,37.50
2023-01-17T13:53:46.096Z,23.50
2023-01-17T13:56:19.004Z,22.00
2023-01-17T13:58:49.805Z,45.70
2023-01-17T14:01:42.692Z,26.10
2023-01-17T14:04:12.986Z,24.10
2023-01-17T14:06:47.425Z,24.90
2023-01-17T14:09:20.108Z,40.30
2023-01-17T14:12:04.058Z,37.90
2023-01-17T14:14:40.416Z,36.10
2023-01-17T14:17:22.630Z,44.40
2023-01-17T14:20:05.737Z,37.70
2023-01-17T14:22:40.681Z,37.50
2023-01-17T14:25:19.196Z,32.50
2023-01-17T14:27:52.176Z,22.20
2023-01-17T14:30:27.424Z,48.20
2023-01-17T14:33:00.741Z,26.30
2023-01-17T14:35:31.862Z,38.00
2023-01-17T14:38:02.376Z,22.20
2023-01-17T14:40:35.590Z,39.00
2023-01-17T14:43:19.264Z,25.60
2023-01-17T14:48:20.941Z,23.50
2023-01-17T14:50:51.792Z,23.50
2023-01-17T14:53:27.547Z,28.10
2023-01-17T14:56:01.032Z,37.00
2023-01-17T15:01:13.396Z,80.60
2023-01-17T15:03:50.523Z,58.50
2023-01-17T15:06:26.269Z,59.50
2023-01-17T15:08:53.368Z,74.40
2023-01-17T15:11:32.206Z,58.20
2023-01-17T15:14:05.161Z,62.90
2023-01-17T15:16:37.822Z,48.20
2023-01-17T15:19:14.129Z,53.00
2023-01-17T15:21:43.583Z,40.10
2023-01-17T15:24:16.875Z,30.40
2023-01-17T15:26:44.138Z,41.90
2023-01-17T15:29:39.871Z,30.90
2023-01-17T15:32:16.529Z,27.70
2023-01-17T15:34:45.221Z,33.60
2023-01-17T15:37:21.175Z,28.00
2023-01-17T15:39:48.332Z,35.30
2023-01-17T15:42:25.045Z,31.20
2023-01-17T15:44:56.127Z,30.90
2023-01-17T15:47:38.010Z,18.40
2023-01-17T15:50:39.195Z,26.60
2023-01-17T15:53:27.877Z,33.80
2023-01-17T15:55:55.215Z,37.10
2023-01-17T15:58:29.436Z,25.30
2023-01-17T16:00:56.572Z,22.90
2023-01-17T16:03:30.110Z,29.00
2023-01-17T16:05:59.725Z,16.30
2023-01-17T16:08:26.548Z,16.50
2023-01-17T16:10:58.443Z,27.50
2023-01-17T16:13:25.453Z,21.70
2023-01-17T16:15:52.531Z,23.90
2023-01-17T16:18:25.286Z,15.10
2023-01-17T16:21:00.025Z,17.20
2023-01-17T16:23:27.912Z,17.90
2023-01-17T16:25:54.939Z,18.40
2023-01-17T16:28:22.205Z,18.60
2023-01-17T16:30:49.090Z,31.80
2023-01-17T16:33:16.490Z,36.50
2023-01-17T16:35:43.636Z,24.60
2023-01-17T16:38:13.419Z,41.30
2023-01-17T16:40:45.690Z,27.80
2023-01-17T16:43:14.508Z,39.10
2023-01-17T16:45:43.614Z,36.30
2023-01-17T16:48:13.558Z,111.90
2023-01-17T16:50:50.344Z,173.40
2023-01-17T16:53:23.415Z,103.60
2023-01-17T16:55:55.057Z,117.10
2023-01-17T16:58:22.308Z,84.80
2023-01-17T17:00:49.396Z,83.20
2023-01-17T17:03:18.590Z,87.00
2023-01-17T17:05:55.166Z,91.70
2023-01-17T17:08:22.800Z,98.00
2023-01-17T17:10:50.356Z,105.10
2023-01-17T17:13:17.506Z,91.60
2023-01-17T17:15:44.242Z,119.00
2023-01-17T17:18:15.943Z,139.20
2023-01-17T17:20:43.979Z,84.60
2023-01-17T17:23:11.389Z,155.70
2023-01-17T17:25:38.590Z,149.80
2023-01-17T17:28:06.132Z,142.80
2023-01-17T17:30:34.040Z,133.20
2023-01-17T17:33:04.050Z,82.70
2023-01-17T17:35:34.299Z,76.70
2023-01-17T17:38:01.134Z,43.30
2023-01-17T17:40:27.903Z,89.80
2023-01-17T17:42:54.653Z,53.20
2023-01-17T17:45:21.769Z,40.00
2023-01-17T17:47:48.449Z,71.30
2023-01-17T17:50:15.735Z,62.50
2023-01-17T17:52:43.567Z,57.60
2023-01-17T17:55:12.522Z,74.80
2023-01-17T17:57:39.350Z,77.70
2023-01-17T18:00:07.755Z,80.60
2023-01-17T18:02:34.446Z,44.80
2023-01-17T18:05:01.860Z,42.50
2023-01-17T18:07:32.055Z,46.00
2023-01-17T18:09:58.999Z,45.50
2023-01-17T18:12:26.461Z,166.50
2023-01-17T18:14:53.279Z,153.80
2023-01-17T18:17:20.141Z,70.80
2023-01-17T18:19:47.099Z,63.40
2023-01-17T18:22:13.833Z,54.10
2023-01-17T18:24:40.675Z,55.80
2023-01-17T18:27:09.713Z,48.30
2023-01-17T18:29:36.534Z,52.70
2023-01-17T18:32:03.469Z,409.30
2023-01-17T18:34:30.255Z,132.10
2023-01-17T18:36:57.925Z,105.60
2023-01-17T18:39:27.143Z,48.40
2023-01-17T18:41:54.514Z,34.80
2023-01-17T18:44:22.460Z,48.40
2023-01-17T18:46:50.610Z,154.70
2023-01-17T18:49:21.025Z,37.80
2023-01-17T18:51:51.656Z,40.40
2023-01-17T18:54:19.841Z,42.10
2023-01-17T18:56:47.481Z,33.40
2023-01-17T18:59:17.657Z,58.30
2023-01-17T19:01:45.005Z,27.90
2023-01-17T19:04:13.584Z,17.90
2023-01-17T19:06:43.487Z,18.50
2023-01-17T19:09:12.668Z,17.40
2023-01-17T19:11:40.074Z,30.20
2023-01-17T19:14:07.284Z,23.60
2023-01-17T19:16:38.761Z,24.90
2023-01-17T19:19:10.518Z,21.00
2023-01-17T19:21:37.740Z,21.50
2023-01-17T19:24:06.952Z,16.10
2023-01-17T19:26:33.919Z,16.40
2023-01-17T19:29:04.410Z,17.10
2023-01-17T19:31:35.167Z,20.60
2023-01-17T19:34:02.328Z,17.00
2023-01-17T19:36:34.504Z,17.60
2023-01-17T19:39:05.252Z,17.30
2023-01-17T19:41:35.184Z,16.30
2023-01-17T19:44:05.403Z,18.40
2023-01-17T19:46:33.257Z,15.80
2023-01-17T19:49:00.483Z,14.20
2023-01-17T19:51:27.934Z,19.50
2023-01-17T19:53:55.517Z,19.40
2023-01-17T19:56:25.101Z,21.60
2023-01-17T19:58:52.460Z,22.80
2023-01-17T20:01:29.524Z,21.50
2023-01-17T20:03:58.215Z,15.50
2023-01-17T20:06:28.993Z,19.00
2023-01-17T20:08:56.647Z,21.50
2023-01-17T20:11:27.386Z,12.20
2023-01-17T20:13:56.188Z,9.70
2023-01-17T20:16:24.818Z,10.40
2023-01-17T20:18:52.743Z,9.00
2023-01-17T20:21:22.423Z,12.10
2023-01-17T20:23:51.113Z,75.90
2023-01-17T20:26:21.898Z,16.10
2023-01-17T20:28:53.657Z,14.90
2023-01-17T20:31:23.429Z,59.00
2023-01-17T20:33:52.730Z,24.00
2023-01-17T20:36:22.748Z,16.80
2023-01-17T20:38:50.299Z,24.10
2023-01-17T20:41:28.416Z,11.80
2023-01-17T20:43:57.710Z,13.60
2023-01-17T20:46:27.342Z,10.40
2023-01-17T20:48:57.203Z,14.10
2023-01-17T20:51:26.036Z,31.20
2023-01-17T20:53:55.743Z,8.90
2023-01-17T20:56:24.026Z,10.40
2023-01-17T20:58:56.051Z,14.50
2023-01-17T21:01:22.971Z,16.30
2023-01-17T21:03:53.252Z,10.60
2023-01-17T21:06:22.644Z,14.50
2023-01-17T21:08:51.152Z,8.70
2023-01-17T21:11:23.854Z,13.10
2023-01-17T21:13:51.402Z,13.20
2023-01-17T21:16:22.281Z,10.10
2023-01-17T21:18:51.126Z,16.00
2023-01-17T21:21:23.629Z,13.70
2023-01-17T21:23:53.010Z,58.70
2023-01-17T21:26:21.971Z,17.50
2023-01-17T21:28:50.289Z,17.80
2023-01-17T21:31:27.675Z,43.90
2023-01-17T21:33:55.825Z,18.20
2023-01-17T21:36:26.883Z,11.20
2023-01-17T21:38:56.531Z,11.30
2023-01-17T21:41:28.950Z,7.60
2023-01-17T21:44:01.041Z,7.50
2023-01-17T21:46:29.367Z,6.90
2023-01-17T21:48:57.181Z,6.40
2023-01-17T21:51:44.918Z,7.80
2023-01-17T21:54:12.081Z,5.70
2023-01-17T21:56:57.856Z,7.50
2023-01-17T21:59:24.710Z,6.90
2023-01-17T22:01:51.563Z,5.90
2023-01-17T22:04:18.414Z,8.00
2023-01-17T22:06:46.164Z,9.10
2023-01-17T22:09:14.651Z,7.90
2023-01-17T22:11:41.601Z,6.60
2023-01-17T22:14:08.841Z,4.80
2023-01-17T22:16:35.691Z,8.30
2023-01-17T22:19:02.750Z,5.40
2023-01-17T22:21:29.702Z,7.70
2023-01-17T22:23:58.902Z,6.20
2023-01-17T22:26:29.005Z,5.00
2023-01-17T22:28:59.333Z,7.40
2023-01-17T22:31:26.996Z,8.80
2023-01-17T22:33:55.520Z,6.40
2023-01-17T22:36:23.154Z,6.10
2023-01-17T22:38:50.171Z,6.80
2023-01-17T22:41:22.767Z,7.20
2023-01-17T22:43:52.396Z,5.60
2023-01-17T22:46:25.445Z,5.80
2023-01-17T22:48:54.064Z,11.10
2023-01-17T22:51:22.760Z,3.00
2023-01-17T22:53:52.643Z,4.80
2023-01-17T22:56:22.583Z,8.10
2023-01-17T22:58:50.357Z,5.70
2023-01-17T23:01:24.010Z,17.40
2023-01-17T23:06:27.499Z,8.00
2023-01-17T23:08:56.701Z,10.80
2023-01-17T23:11:49.419Z,6.00
2023-01-17T23:14:51.599Z,14.30
2023-01-17T23:17:40.060Z,4.30
2023-01-17T23:20:10.454Z,6.60
2023-01-17T23:22:37.753Z,7.10
2023-01-17T23:25:07.345Z,6.60
2023-01-17T23:28:03.957Z,5.10
2023-01-17T23:30:36.772Z,7.00
2023-01-17T23:33:09.083Z,5.50
2023-01-17T23:35:41.721Z,7.30
2023-01-17T23:41:22.626Z,8.60
2023-01-17T23:43:51.717Z,8.20
2023-01-17T23:46:19.251Z,5.60
2023-01-17T23:48:46.533Z,4.70
2023-01-17T23:51:13.426Z,3.70
2023-01-17T23:53:40.435Z,3.30
2023-01-17T23:56:15.348Z,3.20
2023-01-17T23:58:42.309Z,2.00
